PST,Max TemperatureF,Mean TemperatureF,Min TemperatureF,Max Dew PointF,MeanDew PointF,Min DewpointF,Max Humidity, Mean Humidity, Min Humidity, Max Sea Level PressureIn, Mean Sea Level PressureIn, Min Sea Level PressureIn, Max VisibilityMiles, Mean VisibilityMiles, Min VisibilityMiles, Max Wind SpeedMPH, Mean Wind SpeedMPH, Max Gust SpeedMPH,PrecipitationIn, CloudCover, Events, WindDirDegrees
2012-1-1,55,44,32,38,35,32,99,83,44,30.31,30.21,30.07,10,10,9,10,2,,0.00,4,Rain,24
2012-1-2,53,42,30,47,42,30,99,88,67,30.27,30.01,29.91,10,10,8,26,10,38,0.11,7,Rain,183
2012-1-3,54,46,37,48,41,37,100,98,72,30.31,30.23,30.18,10,4,0,12,2,,0.01,3,Fog-Rain,215
2012-1-4,57,46,35,50,45,36,100,93,51,30.21,30.14,30.07,10,7,0,20,6,25,0.44,6,Fog-Rain,193
2012-1-5,48,41,32,45,41,32,100,90,76,30.41,30.33,30.20,10,10,4,28,12,33,0.15,6,Rain,197
2012-1-6,39,34,30,37,35,30,100,97,85,30.38,30.33,30.30,10,9,2,8,2,,0.02,6,Rain,177
2012-1-7,45,39,33,42,37,34,100,98,84,30.48,30.40,30.35,10,6,2,7,1,,0.00,8,Rain,164
2012-1-8,52,41,30,44,33,28,100,98,71,30.40,30.36,30.25,10,2,0,5,1,,0.00,1,Fog,141
2012-1-9,50,44,38,46,44,38,100,95,76,30.31,30.26,30.23,10,9,2,9,4,,0.27,8,Rain,203
2012-1-10,43,34,26,41,35,26,100,95,64,30.53,30.42,30.31,10,7,1,8,3,,0.03,6,Rain,152
2012-1-11,43,34,24,32,26,24,100,92,58,30.53,30.48,30.39,10,7,1,10,1,,0.00,0,,149
2012-1-12,42,32,23,32,28,23,98,87,62,30.40,30.35,30.31,10,10,10,5,0,,0.00,2,,296
2012-1-13,42,32,21,34,25,21,100,95,63,30.33,30.30,30.06,10,4,1,5,0,,0.00,1,,177
2012-1-14,41,36,30,41,34,30,100,91,70,30.03,29.99,29.92,10,8,0,24,9,31,0.19,6,Fog-Rain-Snow,219
2012-1-15,35,30,24,34,30,23,100,98,87,30.13,30.04,29.98,10,5,0,10,3,,0.07,6,Fog-Snow,213
2012-1-16,34,27,20,34,31,20,100,97,90,30.15,30.07,29.99,10,10,5,14,7,20,0.05,7,Snow,187
2012-1-17,36,33,30,34,33,30,100,97,85,29.98,29.88,29.84,10,8,2,17,11,24,0.35,7,Rain-Snow,197
2012-1-18,32,30,29,32,30,28,100,98,93,29.98,29.74,29.62,10,3,0,15,5,18,0.58,8,Fog-Rain-Snow,31
2012-1-19,30,29,28,30,29,28,100,96,93,29.79,29.69,29.58,8,4,2,4,0,,0.65,8,Rain,12
2012-1-20,37,34,30,38,34,30,100,99,93,29.78,29.43,29.07,7,2,0,9,0,,0.38,7,Fog-Rain-Snow,85
2012-1-21,48,42,35,46,38,34,100,93,85,29.93,29.47,29.05,10,9,1,33,14,43,0.17,7,Rain,199
2012-1-22,44,37,30,41,37,30,100,88,65,29.89,29.62,29.44,10,9,5,21,9,32,0.11,7,Rain,178
2012-1-23,48,40,31,38,34,31,99,89,59,30.05,29.98,29.86,10,10,10,9,5,,0.00,3,Rain,204
2012-1-24,51,41,31,50,45,31,100,96,84,30.03,29.82,29.68,10,8,2,26,6,37,0.45,7,Rain,200
2012-1-25,50,44,39,45,40,37,100,91,75,30.30,30.20,29.99,10,7,2,25,10,33,0.29,7,Rain,209
2012-1-26,48,38,26,47,38,26,100,84,52,30.61,30.20,29.99,10,9,3,23,14,32,0.17,5,Rain,215
2012-1-27,44,33,22,31,24,21,100,95,54,30.66,30.63,30.52,10,3,0,6,0,,0.00,0,Fog,139
2012-1-28,41,34,28,35,32,28,99,85,66,30.51,30.37,30.13,10,10,5,5,1,,0.00,7,Rain,201
2012-1-29,50,42,34,50,45,34,100,96,58,30.08,29.92,29.81,10,9,2,15,8,,0.95,8,Rain,201
2012-1-30,48,44,40,46,43,40,100,91,76,30.10,30.04,29.86,10,10,9,17,11,23,0.04,7,Rain,207
2012-1-31,49,45,41,43,40,38,100,87,66,30.10,30.02,29.88,10,10,4,14,6,,0.10,7,Rain,175